sensor_id;sensor_type;location;lat;lon;timestamp;temperature;humidity
23499;DHT22;11926;48.120;11.562;2023-04-30T00:02:11;13.10;87.40
23499;DHT22;11926;48.120;11.562;2023-04-30T00:04:59;13.10;87.50
23499;DHT22;11926;48.120;11.562;2023-04-30T00:07:46;13.10;87.50
23499;DHT22;11926;48.120;11.562;2023-04-30T00:10:33;13.00;87.60
23499;DHT22;11926;48.120;11.562;2023-04-30T00:13:20;12.90;87.70
23499;DHT22;11926;48.120;11.562;2023-04-30T00:16:08;12.90;88.00
23499;DHT22;11926;48.120;11.562;2023-04-30T00:18:55;12.90;88.30
23499;DHT22;11926;48.120;11.562;2023-04-30T00:21:42;12.90;88.60
23499;DHT22;11926;48.120;11.562;2023-04-30T00:24:29;12.90;88.70
23499;DHT22;11926;48.120;11.562;2023-04-30T00:27:16;12.80;88.60
23499;DHT22;11926;48.120;11.562;2023-04-30T00:30:04;12.80;88.90
23499;DHT22;11926;48.120;11.562;2023-04-30T00:32:53;12.80;89.00
23499;DHT22;11926;48.120;11.562;2023-04-30T00:35:40;12.80;89.20
23499;DHT22;11926;48.120;11.562;2023-04-30T00:38:28;12.80;89.30
23499;DHT22;11926;48.120;11.562;2023-04-30T00:41:15;12.80;89.00
23499;DHT22;11926;48.120;11.562;2023-04-30T00:44:03;12.80;89.20
23499;DHT22;11926;48.120;11.562;2023-04-30T00:46:51;12.70;89.10
23499;DHT22;11926;48.120;11.562;2023-04-30T00:49:40;12.70;89.30
23499;DHT22;11926;48.120;11.562;2023-04-30T00:52:27;12.70;89.30
23499;DHT22;11926;48.120;11.562;2023-04-30T00:55:14;12.60;89.10
23499;DHT22;11926;48.120;11.562;2023-04-30T00:58:04;12.50;89.30
23499;DHT22;11926;48.120;11.562;2023-04-30T01:00:53;12.50;89.60
23499;DHT22;11926;48.120;11.562;2023-04-30T01:03:41;12.50;89.70
23499;DHT22;11926;48.120;11.562;2023-04-30T01:06:31;12.50;89.70
23499;DHT22;11926;48.120;11.562;2023-04-30T01:09:19;12.50;89.50
23499;DHT22;11926;48.120;11.562;2023-04-30T01:12:14;12.40;89.70
23499;DHT22;11926;48.120;11.562;2023-04-30T01:15:09;12.50;89.80
23499;DHT22;11926;48.120;11.562;2023-04-30T01:18:03;12.50;89.70
23499;DHT22;11926;48.120;11.562;2023-04-30T01:20:55;12.50;89.70
23499;DHT22;11926;48.120;11.562;2023-04-30T01:24:04;12.50;89.70
23499;DHT22;11926;48.120;11.562;2023-04-30T01:27:05;12.50;89.50
23499;DHT22;11926;48.120;11.562;2023-04-30T01:29:55;12.50;89.50
23499;DHT22;11926;48.120;11.562;2023-04-30T01:32:44;12.50;90.00
23499;DHT22;11926;48.120;11.562;2023-04-30T01:35:45;12.40;90.00
23499;DHT22;11926;48.120;11.562;2023-04-30T01:38:49;12.40;90.10
23499;DHT22;11926;48.120;11.562;2023-04-30T01:41:48;12.40;90.20
23499;DHT22;11926;48.120;11.562;2023-04-30T01:45:03;12.40;90.10
23499;DHT22;11926;48.120;11.562;2023-04-30T01:48:00;12.40;90.20
23499;DHT22;11926;48.120;11.562;2023-04-30T01:50:52;12.40;90.20
23499;DHT22;11926;48.120;11.562;2023-04-30T01:53:42;12.30;90.10
23499;DHT22;11926;48.120;11.562;2023-04-30T01:56:35;12.30;90.20
23499;DHT22;11926;48.120;11.562;2023-04-30T01:59:24;12.30;90.30
23499;DHT22;11926;48.120;11.562;2023-04-30T02:02:13;12.30;90.20
23499;DHT22;11926;48.120;11.562;2023-04-30T02:05:00;12.30;90.30
23499;DHT22;11926;48.120;11.562;2023-04-30T02:07:48;12.30;90.40
23499;DHT22;11926;48.120;11.562;2023-04-30T02:10:36;12.30;90.50
23499;DHT22;11926;48.120;11.562;2023-04-30T02:13:24;12.30;90.30
23499;DHT22;11926;48.120;11.562;2023-04-30T02:16:11;12.30;90.30
23499;DHT22;11926;48.120;11.562;2023-04-30T02:19:00;12.30;90.30
23499;DHT22;11926;48.120;11.562;2023-04-30T02:21:47;12.30;90.40
23499;DHT22;11926;48.120;11.562;2023-04-30T02:24:34;12.30;90.50
23499;DHT22;11926;48.120;11.562;2023-04-30T02:27:22;12.20;90.50
23499;DHT22;11926;48.120;11.562;2023-04-30T02:30:10;12.20;90.50
23499;DHT22;11926;48.120;11.562;2023-04-30T02:32:57;12.20;90.40
23499;DHT22;11926;48.120;11.562;2023-04-30T02:35:46;12.10;90.50
23499;DHT22;11926;48.120;11.562;2023-04-30T02:38:33;12.10;90.60
23499;DHT22;11926;48.120;11.562;2023-04-30T02:41:20;12.00;90.60
23499;DHT22;11926;48.120;11.562;2023-04-30T02:44:07;12.00;90.70
23499;DHT22;11926;48.120;11.562;2023-04-30T02:46:54;12.10;90.70
23499;DHT22;11926;48.120;11.562;2023-04-30T02:49:41;12.10;90.60
23499;DHT22;11926;48.120;11.562;2023-04-30T02:52:31;12.10;90.60
23499;DHT22;11926;48.120;11.562;2023-04-30T02:55:18;12.10;90.60
23499;DHT22;11926;48.120;11.562;2023-04-30T02:58:06;12.10;90.60
23499;DHT22;11926;48.120;11.562;2023-04-30T03:00:53;12.10;90.60
23499;DHT22;11926;48.120;11.562;2023-04-30T03:03:41;12.00;90.60
23499;DHT22;11926;48.120;11.562;2023-04-30T03:06:28;12.00;90.60
23499;DHT22;11926;48.120;11.562;2023-04-30T03:09:17;12.00;90.60
23499;DHT22;11926;48.120;11.562;2023-04-30T03:12:04;12.00;90.60
23499;DHT22;11926;48.120;11.562;2023-04-30T03:14:51;11.90;90.70
23499;DHT22;11926;48.120;11.562;2023-04-30T03:17:38;11.90;90.70
23499;DHT22;11926;48.120;11.562;2023-04-30T03:20:29;11.90;90.80
23499;DHT22;11926;48.120;11.562;2023-04-30T03:23:16;11.80;90.70
23499;DHT22;11926;48.120;11.562;2023-04-30T03:26:05;11.80;90.80
23499;DHT22;11926;48.120;11.562;2023-04-30T03:28:53;11.80;90.80
23499;DHT22;11926;48.120;11.562;2023-04-30T03:31:42;11.70;90.80
23499;DHT22;11926;48.120;11.562;2023-04-30T03:34:29;11.70;90.80
23499;DHT22;11926;48.120;11.562;2023-04-30T03:37:16;11.60;90.90
23499;DHT22;11926;48.120;11.562;2023-04-30T03:40:03;11.60;91.00
23499;DHT22;11926;48.120;11.562;2023-04-30T03:42:52;11.50;91.10
23499;DHT22;11926;48.120;11.562;2023-04-30T03:45:40;11.50;91.20
23499;DHT22;11926;48.120;11.562;2023-04-30T03:48:27;11.50;91.20
23499;DHT22;11926;48.120;11.562;2023-04-30T03:51:20;11.40;91.20
23499;DHT22;11926;48.120;11.562;2023-04-30T03:54:08;11.40;91.30
23499;DHT22;11926;48.120;11.562;2023-04-30T03:56:55;11.40;91.30
23499;DHT22;11926;48.120;11.562;2023-04-30T03:59:44;11.30;91.40
23499;DHT22;11926;48.120;11.562;2023-04-30T04:02:32;11.30;91.40
23499;DHT22;11926;48.120;11.562;2023-04-30T04:05:19;11.30;91.50
23499;DHT22;11926;48.120;11.562;2023-04-30T04:08:06;11.30;91.40
23499;DHT22;11926;48.120;11.562;2023-04-30T04:10:54;11.30;91.50
23499;DHT22;11926;48.120;11.562;2023-04-30T04:13:41;11.20;91.40
23499;DHT22;11926;48.120;11.562;2023-04-30T04:16:30;11.20;91.40
23499;DHT22;11926;48.120;11.562;2023-04-30T04:19:17;11.20;91.50
23499;DHT22;11926;48.120;11.562;2023-04-30T04:22:05;11.10;91.40
23499;DHT22;11926;48.120;11.562;2023-04-30T04:24:52;11.10;91.50
23499;DHT22;11926;48.120;11.562;2023-04-30T04:27:41;11.10;91.50
23499;DHT22;11926;48.120;11.562;2023-04-30T04:30:29;11.20;91.60
23499;DHT22;11926;48.120;11.562;2023-04-30T04:33:18;11.20;91.60
23499;DHT22;11926;48.120;11.562;2023-04-30T04:36:06;11.20;91.60
23499;DHT22;11926;48.120;11.562;2023-04-30T04:38:53;11.20;91.50
23499;DHT22;11926;48.120;11.562;2023-04-30T04:41:42;11.20;91.70
23499;DHT22;11926;48.120;11.562;2023-04-30T04:44:29;11.30;91.50
23499;DHT22;11926;48.120;11.562;2023-04-30T04:47:17;11.20;91.80
23499;DHT22;11926;48.120;11.562;2023-04-30T04:50:08;11.20;91.50
23499;DHT22;11926;48.120;11.562;2023-04-30T04:52:55;11.20;91.60
23499;DHT22;11926;48.120;11.562;2023-04-30T04:55:43;11.20;91.60
23499;DHT22;11926;48.120;11.562;2023-04-30T04:58:30;11.10;91.60
23499;DHT22;11926;48.120;11.562;2023-04-30T05:01:17;11.20;91.70
23499;DHT22;11926;48.120;11.562;2023-04-30T05:04:04;11.30;91.70
23499;DHT22;11926;48.120;11.562;2023-04-30T05:06:54;11.40;91.60
23499;DHT22;11926;48.120;11.562;2023-04-30T05:09:41;11.50;91.60
23499;DHT22;11926;48.120;11.562;2023-04-30T05:12:28;11.50;91.40
23499;DHT22;11926;48.120;11.562;2023-04-30T05:15:16;11.40;91.30
23499;DHT22;11926;48.120;11.562;2023-04-30T05:18:03;11.40;91.50
23499;DHT22;11926;48.120;11.562;2023-04-30T05:20:50;11.50;91.40
23499;DHT22;11926;48.120;11.562;2023-04-30T05:23:39;11.40;91.40
23499;DHT22;11926;48.120;11.562;2023-04-30T05:26:26;11.40;91.40
23499;DHT22;11926;48.120;11.562;2023-04-30T05:29:13;11.40;91.40
23499;DHT22;11926;48.120;11.562;2023-04-30T05:32:00;11.30;91.60
23499;DHT22;11926;48.120;11.562;2023-04-30T05:34:48;11.40;91.60
23499;DHT22;11926;48.120;11.562;2023-04-30T05:37:35;11.40;91.50
23499;DHT22;11926;48.120;11.562;2023-04-30T05:40:24;11.50;91.60
23499;DHT22;11926;48.120;11.562;2023-04-30T05:43:11;11.60;91.50
23499;DHT22;11926;48.120;11.562;2023-04-30T05:45:58;11.70;91.40
23499;DHT22;11926;48.120;11.562;2023-04-30T05:48:46;11.70;91.20
23499;DHT22;11926;48.120;11.562;2023-04-30T05:51:33;11.60;91.20
23499;DHT22;11926;48.120;11.562;2023-04-30T05:54:20;11.70;91.40
23499;DHT22;11926;48.120;11.562;2023-04-30T05:57:09;11.80;91.20
23499;DHT22;11926;48.120;11.562;2023-04-30T05:59:56;11.70;91.00
23499;DHT22;11926;48.120;11.562;2023-04-30T06:02:43;11.70;91.10
23499;DHT22;11926;48.120;11.562;2023-04-30T06:05:31;11.70;91.20
23499;DHT22;11926;48.120;11.562;2023-04-30T06:08:18;11.80;91.50
23499;DHT22;11926;48.120;11.562;2023-04-30T06:11:05;11.80;91.00
23499;DHT22;11926;48.120;11.562;2023-04-30T06:13:54;11.90;90.90
23499;DHT22;11926;48.120;11.562;2023-04-30T06:16:41;11.90;90.90
23499;DHT22;11926;48.120;11.562;2023-04-30T06:19:29;12.00;91.00
23499;DHT22;11926;48.120;11.562;2023-04-30T06:22:16;12.10;90.80
23499;DHT22;11926;48.120;11.562;2023-04-30T06:25:05;12.20;90.70
23499;DHT22;11926;48.120;11.562;2023-04-30T06:27:52;12.40;90.60
23499;DHT22;11926;48.120;11.562;2023-04-30T06:30:42;12.60;90.30
23499;DHT22;11926;48.120;11.562;2023-04-30T06:33:29;12.70;90.00
23499;DHT22;11926;48.120;11.562;2023-04-30T06:36:16;12.80;89.40
23499;DHT22;11926;48.120;11.562;2023-04-30T06:39:04;12.90;89.10
23499;DHT22;11926;48.120;11.562;2023-04-30T06:41:51;13.10;89.00
23499;DHT22;11926;48.120;11.562;2023-04-30T06:44:40;13.20;87.80
23499;DHT22;11926;48.120;11.562;2023-04-30T06:47:30;13.40;87.50
23499;DHT22;11926;48.120;11.562;2023-04-30T06:50:19;13.50;87.00
23499;DHT22;11926;48.120;11.562;2023-04-30T06:53:07;13.70;86.50
23499;DHT22;11926;48.120;11.562;2023-04-30T06:55:54;14.10;86.00
23499;DHT22;11926;48.120;11.562;2023-04-30T06:58:41;14.30;84.10
23499;DHT22;11926;48.120;11.562;2023-04-30T07:01:28;14.60;83.60
23499;DHT22;11926;48.120;11.562;2023-04-30T07:04:17;14.80;82.70
23499;DHT22;11926;48.120;11.562;2023-04-30T07:07:04;15.00;81.20
23499;DHT22;11926;48.120;11.562;2023-04-30T07:09:52;15.00;80.60
23499;DHT22;11926;48.120;11.562;2023-04-30T07:12:40;15.20;79.70
23499;DHT22;11926;48.120;11.562;2023-04-30T07:15:26;15.10;79.40
23499;DHT22;11926;48.120;11.562;2023-04-30T07:18:13;15.20;80.00
23499;DHT22;11926;48.120;11.562;2023-04-30T07:21:02;15.30;79.30
23499;DHT22;11926;48.120;11.562;2023-04-30T07:23:49;15.50;79.40
23499;DHT22;11926;48.120;11.562;2023-04-30T07:26:37;15.70;78.20
23499;DHT22;11926;48.120;11.562;2023-04-30T07:29:24;15.70;78.20
23499;DHT22;11926;48.120;11.562;2023-04-30T07:32:11;15.70;77.80
23499;DHT22;11926;48.120;11.562;2023-04-30T07:34:59;15.80;77.70
23499;DHT22;11926;48.120;11.562;2023-04-30T07:37:47;15.90;77.30
23499;DHT22;11926;48.120;11.562;2023-04-30T07:40:34;15.80;76.90
23499;DHT22;11926;48.120;11.562;2023-04-30T07:43:21;15.80;77.50
23499;DHT22;11926;48.120;11.562;2023-04-30T07:46:08;15.90;77.00
23499;DHT22;11926;48.120;11.562;2023-04-30T07:48:56;16.00;75.80
23499;DHT22;11926;48.120;11.562;2023-04-30T07:51:43;16.10;76.30
23499;DHT22;11926;48.120;11.562;2023-04-30T07:54:31;16.20;75.80
23499;DHT22;11926;48.120;11.562;2023-04-30T07:57:21;16.60;75.10
23499;DHT22;11926;48.120;11.562;2023-04-30T08:00:08;17.00;73.80
23499;DHT22;11926;48.120;11.562;2023-04-30T08:02:57;17.10;73.00
23499;DHT22;11926;48.120;11.562;2023-04-30T08:05:46;17.00;72.10
23499;DHT22;11926;48.120;11.562;2023-04-30T08:08:33;16.90;73.00
23499;DHT22;11926;48.120;11.562;2023-04-30T08:11:22;17.20;73.50
23499;DHT22;11926;48.120;11.562;2023-04-30T08:14:09;18.70;70.90
23499;DHT22;11926;48.120;11.562;2023-04-30T08:16:56;19.30;66.00
23499;DHT22;11926;48.120;11.562;2023-04-30T08:19:46;20.60;67.00
23499;DHT22;11926;48.120;11.562;2023-04-30T08:22:33;21.40;60.10
23499;DHT22;11926;48.120;11.562;2023-04-30T08:25:21;21.90;58.60
23499;DHT22;11926;48.120;11.562;2023-04-30T08:28:10;21.60;57.70
23499;DHT22;11926;48.120;11.562;2023-04-30T08:30:57;20.90;59.30
23499;DHT22;11926;48.120;11.562;2023-04-30T08:33:44;21.30;59.40
23499;DHT22;11926;48.120;11.562;2023-04-30T08:36:31;21.40;57.10
23499;DHT22;11926;48.120;11.562;2023-04-30T08:39:19;20.40;57.20
23499;DHT22;11926;48.120;11.562;2023-04-30T08:42:08;19.50;59.20
23499;DHT22;11926;48.120;11.562;2023-04-30T08:44:57;18.90;61.50
23499;DHT22;11926;48.120;11.562;2023-04-30T08:47:47;19.60;64.50
23499;DHT22;11926;48.120;11.562;2023-04-30T08:50:35;20.60;59.50
23499;DHT22;11926;48.120;11.562;2023-04-30T08:53:21;20.50;58.30
23499;DHT22;11926;48.120;11.562;2023-04-30T08:56:10;19.90;58.90
23499;DHT22;11926;48.120;11.562;2023-04-30T08:58:57;19.50;59.50
23499;DHT22;11926;48.120;11.562;2023-04-30T09:01:45;19.10;59.50
23499;DHT22;11926;48.120;11.562;2023-04-30T09:04:32;18.60;61.10
23499;DHT22;11926;48.120;11.562;2023-04-30T09:07:21;18.30;62.40
23499;DHT22;11926;48.120;11.562;2023-04-30T09:10:14;18.00;63.10
23499;DHT22;11926;48.120;11.562;2023-04-30T09:13:03;17.70;63.90
23499;DHT22;11926;48.120;11.562;2023-04-30T09:15:51;17.40;64.80
23499;DHT22;11926;48.120;11.562;2023-04-30T09:18:41;17.20;65.50
23499;DHT22;11926;48.120;11.562;2023-04-30T09:21:32;17.20;67.60
23499;DHT22;11926;48.120;11.562;2023-04-30T09:24:19;18.00;66.00
23499;DHT22;11926;48.120;11.562;2023-04-30T09:27:15;18.40;64.60
23499;DHT22;11926;48.120;11.562;2023-04-30T09:30:02;18.40;63.10
23499;DHT22;11926;48.120;11.562;2023-04-30T09:32:54;18.10;63.20
23499;DHT22;11926;48.120;11.562;2023-04-30T09:35:43;17.80;63.70
23499;DHT22;11926;48.120;11.562;2023-04-30T09:38:31;17.40;64.30
23499;DHT22;11926;48.120;11.562;2023-04-30T09:41:23;17.20;65.30
23499;DHT22;11926;48.120;11.562;2023-04-30T09:44:27;17.00;65.80
23499;DHT22;11926;48.120;11.562;2023-04-30T09:47:16;16.90;66.40
23499;DHT22;11926;48.120;11.562;2023-04-30T09:50:04;16.90;67.20
23499;DHT22;11926;48.120;11.562;2023-04-30T09:53:05;16.90;67.10
23499;DHT22;11926;48.120;11.562;2023-04-30T09:55:53;17.00;66.70
23499;DHT22;11926;48.120;11.562;2023-04-30T09:58:43;16.90;66.50
23499;DHT22;11926;48.120;11.562;2023-04-30T10:01:33;16.80;66.00
23499;DHT22;11926;48.120;11.562;2023-04-30T10:04:27;16.60;66.30
23499;DHT22;11926;48.120;11.562;2023-04-30T10:07:16;16.40;67.30
23499;DHT22;11926;48.120;11.562;2023-04-30T10:10:09;16.40;67.80
23499;DHT22;11926;48.120;11.562;2023-04-30T10:13:01;16.30;68.00
23499;DHT22;11926;48.120;11.562;2023-04-30T10:15:58;16.40;68.20
23499;DHT22;11926;48.120;11.562;2023-04-30T10:18:45;16.50;68.30
23499;DHT22;11926;48.120;11.562;2023-04-30T10:21:34;16.50;68.00
23499;DHT22;11926;48.120;11.562;2023-04-30T10:24:24;16.60;68.20
23499;DHT22;11926;48.120;11.562;2023-04-30T10:27:14;16.70;67.60
23499;DHT22;11926;48.120;11.562;2023-04-30T10:30:02;16.80;68.10
23499;DHT22;11926;48.120;11.562;2023-04-30T10:32:54;16.90;67.30
23499;DHT22;11926;48.120;11.562;2023-04-30T10:35:48;16.80;67.10
23499;DHT22;11926;48.120;11.562;2023-04-30T10:38:36;16.80;68.30
23499;DHT22;11926;48.120;11.562;2023-04-30T10:41:25;16.90;68.20
23499;DHT22;11926;48.120;11.562;2023-04-30T10:44:35;17.00;66.70
23499;DHT22;11926;48.120;11.562;2023-04-30T10:47:28;17.30;67.40
23499;DHT22;11926;48.120;11.562;2023-04-30T10:50:15;17.50;66.60
23499;DHT22;11926;48.120;11.562;2023-04-30T10:53:05;17.80;65.50
23499;DHT22;11926;48.120;11.562;2023-04-30T10:55:59;18.00;65.20
23499;DHT22;11926;48.120;11.562;2023-04-30T10:58:51;18.20;63.70
23499;DHT22;11926;48.120;11.562;2023-04-30T11:01:55;18.10;63.10
23499;DHT22;11926;48.120;11.562;2023-04-30T11:08:00;18.20;63.30
23499;DHT22;11926;48.120;11.562;2023-04-30T11:10:57;18.20;62.00
23499;DHT22;11926;48.120;11.562;2023-04-30T11:13:47;18.00;61.50
23499;DHT22;11926;48.120;11.562;2023-04-30T11:16:34;18.00;62.20
23499;DHT22;11926;48.120;11.562;2023-04-30T11:19:23;18.10;62.90
23499;DHT22;11926;48.120;11.562;2023-04-30T11:22:20;18.10;61.40
23499;DHT22;11926;48.120;11.562;2023-04-30T11:25:09;18.30;62.00
23499;DHT22;11926;48.120;11.562;2023-04-30T11:27:57;18.40;61.70
23499;DHT22;11926;48.120;11.562;2023-04-30T11:30:51;18.50;62.50
23499;DHT22;11926;48.120;11.562;2023-04-30T11:33:39;18.70;60.50
23499;DHT22;11926;48.120;11.562;2023-04-30T11:36:29;18.70;59.60
23499;DHT22;11926;48.120;11.562;2023-04-30T11:39:19;18.60;59.20
23499;DHT22;11926;48.120;11.562;2023-04-30T11:42:07;18.50;59.20
23499;DHT22;11926;48.120;11.562;2023-04-30T11:45:02;18.40;60.50
23499;DHT22;11926;48.120;11.562;2023-04-30T11:47:53;18.40;59.60
23499;DHT22;11926;48.120;11.562;2023-04-30T11:50:41;18.40;59.60
23499;DHT22;11926;48.120;11.562;2023-04-30T11:53:30;18.50;59.40
23499;DHT22;11926;48.120;11.562;2023-04-30T11:56:18;18.50;59.00
23499;DHT22;11926;48.120;11.562;2023-04-30T11:59:09;18.30;59.10
23499;DHT22;11926;48.120;11.562;2023-04-30T12:01:57;18.30;59.00
23499;DHT22;11926;48.120;11.562;2023-04-30T12:04:44;18.10;59.20
23499;DHT22;11926;48.120;11.562;2023-04-30T12:07:32;18.10;58.60
23499;DHT22;11926;48.120;11.562;2023-04-30T12:10:22;17.90;58.70
23499;DHT22;11926;48.120;11.562;2023-04-30T12:13:13;17.90;59.50
23499;DHT22;11926;48.120;11.562;2023-04-30T12:16:01;18.10;59.40
23499;DHT22;11926;48.120;11.562;2023-04-30T12:18:48;18.20;59.20
23499;DHT22;11926;48.120;11.562;2023-04-30T12:21:38;18.20;58.70
23499;DHT22;11926;48.120;11.562;2023-04-30T12:24:26;18.10;59.20
23499;DHT22;11926;48.120;11.562;2023-04-30T12:27:15;18.10;59.50
23499;DHT22;11926;48.120;11.562;2023-04-30T12:30:05;18.10;59.70
23499;DHT22;11926;48.120;11.562;2023-04-30T12:32:57;18.10;60.20
23499;DHT22;11926;48.120;11.562;2023-04-30T12:35:45;18.10;60.40
23499;DHT22;11926;48.120;11.562;2023-04-30T12:38:32;18.10;59.60
23499;DHT22;11926;48.120;11.562;2023-04-30T12:41:19;18.10;59.40
23499;DHT22;11926;48.120;11.562;2023-04-30T12:44:19;18.10;58.80
23499;DHT22;11926;48.120;11.562;2023-04-30T12:47:07;18.10;58.70
23499;DHT22;11926;48.120;11.562;2023-04-30T12:49:54;18.10;59.10
23499;DHT22;11926;48.120;11.562;2023-04-30T12:52:43;18.30;58.60
23499;DHT22;11926;48.120;11.562;2023-04-30T12:55:31;18.40;59.40
23499;DHT22;11926;48.120;11.562;2023-04-30T12:58:19;18.50;58.60
23499;DHT22;11926;48.120;11.562;2023-04-30T13:01:12;18.40;58.90
23499;DHT22;11926;48.120;11.562;2023-04-30T13:03:59;18.40;59.80
23499;DHT22;11926;48.120;11.562;2023-04-30T13:06:47;18.50;59.30
23499;DHT22;11926;48.120;11.562;2023-04-30T13:09:37;18.60;58.60
23499;DHT22;11926;48.120;11.562;2023-04-30T13:12:25;18.50;58.50
23499;DHT22;11926;48.120;11.562;2023-04-30T13:15:12;18.70;59.20
23499;DHT22;11926;48.120;11.562;2023-04-30T13:18:01;18.80;58.40
23499;DHT22;11926;48.120;11.562;2023-04-30T13:20:49;18.80;58.20
23499;DHT22;11926;48.120;11.562;2023-04-30T13:23:36;18.80;59.90
23499;DHT22;11926;48.120;11.562;2023-04-30T13:26:37;19.00;59.60
23499;DHT22;11926;48.120;11.562;2023-04-30T13:29:25;19.10;58.50
23499;DHT22;11926;48.120;11.562;2023-04-30T13:32:12;19.20;58.00
23499;DHT22;11926;48.120;11.562;2023-04-30T13:35:01;19.20;57.40
23499;DHT22;11926;48.120;11.562;2023-04-30T13:37:48;19.30;58.20
23499;DHT22;11926;48.120;11.562;2023-04-30T13:40:37;19.60;58.00
23499;DHT22;11926;48.120;11.562;2023-04-30T13:43:24;19.80;56.10
23499;DHT22;11926;48.120;11.562;2023-04-30T13:46:11;19.80;56.90
23499;DHT22;11926;48.120;11.562;2023-04-30T13:49:00;19.80;56.40
23499;DHT22;11926;48.120;11.562;2023-04-30T13:51:49;19.90;56.00
23499;DHT22;11926;48.120;11.562;2023-04-30T13:54:37;19.80;54.80
23499;DHT22;11926;48.120;11.562;2023-04-30T13:57:24;19.50;54.70
23499;DHT22;11926;48.120;11.562;2023-04-30T14:00:12;19.30;55.50
23499;DHT22;11926;48.120;11.562;2023-04-30T14:03:00;19.20;55.80
23499;DHT22;11926;48.120;11.562;2023-04-30T14:05:50;19.20;55.80
23499;DHT22;11926;48.120;11.562;2023-04-30T14:08:39;19.30;55.60
23499;DHT22;11926;48.120;11.562;2023-04-30T14:11:26;19.30;55.50
23499;DHT22;11926;48.120;11.562;2023-04-30T14:14:13;19.30;55.80
23499;DHT22;11926;48.120;11.562;2023-04-30T14:17:01;19.40;55.30
23499;DHT22;11926;48.120;11.562;2023-04-30T14:19:49;19.40;55.30
23499;DHT22;11926;48.120;11.562;2023-04-30T14:22:37;19.40;55.50
23499;DHT22;11926;48.120;11.562;2023-04-30T14:25:25;19.30;55.30
23499;DHT22;11926;48.120;11.562;2023-04-30T14:28:12;19.30;55.30
23499;DHT22;11926;48.120;11.562;2023-04-30T14:31:00;19.20;55.00
23499;DHT22;11926;48.120;11.562;2023-04-30T14:33:48;19.00;54.90
23499;DHT22;11926;48.120;11.562;2023-04-30T14:36:35;19.00;55.20
23499;DHT22;11926;48.120;11.562;2023-04-30T14:39:22;19.00;55.10
23499;DHT22;11926;48.120;11.562;2023-04-30T14:42:11;19.00;55.40
23499;DHT22;11926;48.120;11.562;2023-04-30T14:44:58;19.10;55.90
23499;DHT22;11926;48.120;11.562;2023-04-30T14:47:45;19.30;56.20
23499;DHT22;11926;48.120;11.562;2023-04-30T14:50:33;19.20;55.70
23499;DHT22;11926;48.120;11.562;2023-04-30T14:53:20;19.00;55.60
23499;DHT22;11926;48.120;11.562;2023-04-30T14:56:07;18.80;57.00
23499;DHT22;11926;48.120;11.562;2023-04-30T14:58:56;18.70;57.20
23499;DHT22;11926;48.120;11.562;2023-04-30T15:01:43;18.70;56.80
23499;DHT22;11926;48.120;11.562;2023-04-30T15:04:31;18.60;57.50
23499;DHT22;11926;48.120;11.562;2023-04-30T15:07:19;18.50;57.10
23499;DHT22;11926;48.120;11.562;2023-04-30T15:10:07;18.40;57.30
23499;DHT22;11926;48.120;11.562;2023-04-30T15:12:54;18.40;57.60
23499;DHT22;11926;48.120;11.562;2023-04-30T15:15:42;18.50;57.00
23499;DHT22;11926;48.120;11.562;2023-04-30T15:18:33;18.50;57.00
23499;DHT22;11926;48.120;11.562;2023-04-30T15:21:21;18.50;57.30
23499;DHT22;11926;48.120;11.562;2023-04-30T15:24:08;18.50;57.10
23499;DHT22;11926;48.120;11.562;2023-04-30T15:26:55;18.60;57.20
23499;DHT22;11926;48.120;11.562;2023-04-30T15:29:42;18.60;57.40
23499;DHT22;11926;48.120;11.562;2023-04-30T15:32:33;18.60;57.30
23499;DHT22;11926;48.120;11.562;2023-04-30T15:35:20;18.70;57.80
23499;DHT22;11926;48.120;11.562;2023-04-30T15:38:08;18.70;57.10
23499;DHT22;11926;48.120;11.562;2023-04-30T15:40:55;18.60;57.20
23499;DHT22;11926;48.120;11.562;2023-04-30T15:43:42;18.60;57.30
23499;DHT22;11926;48.120;11.562;2023-04-30T15:46:29;18.40;57.20
23499;DHT22;11926;48.120;11.562;2023-04-30T15:49:18;18.30;57.40
23499;DHT22;11926;48.120;11.562;2023-04-30T15:52:05;18.10;58.00
23499;DHT22;11926;48.120;11.562;2023-04-30T15:54:53;18.10;58.50
23499;DHT22;11926;48.120;11.562;2023-04-30T15:57:40;18.20;58.80
23499;DHT22;11926;48.120;11.562;2023-04-30T16:00:27;18.30;59.10
23499;DHT22;11926;48.120;11.562;2023-04-30T16:03:14;18.40;58.50
23499;DHT22;11926;48.120;11.562;2023-04-30T16:06:04;18.40;57.50
23499;DHT22;11926;48.120;11.562;2023-04-30T16:08:51;18.30;57.70
23499;DHT22;11926;48.120;11.562;2023-04-30T16:11:38;18.10;57.80
23499;DHT22;11926;48.120;11.562;2023-04-30T16:14:26;17.90;57.70
23499;DHT22;11926;48.120;11.562;2023-04-30T16:17:13;17.80;57.90
23499;DHT22;11926;48.120;11.562;2023-04-30T16:20:01;17.70;58.20
23499;DHT22;11926;48.120;11.562;2023-04-30T16:22:50;17.70;58.10
23499;DHT22;11926;48.120;11.562;2023-04-30T16:25:38;17.60;58.30
23499;DHT22;11926;48.120;11.562;2023-04-30T16:28:25;17.60;58.60
23499;DHT22;11926;48.120;11.562;2023-04-30T16:31:13;17.60;58.60
23499;DHT22;11926;48.120;11.562;2023-04-30T16:34:01;17.60;58.90
23499;DHT22;11926;48.120;11.562;2023-04-30T16:36:48;17.60;58.30
23499;DHT22;11926;48.120;11.562;2023-04-30T16:39:36;17.50;58.40
23499;DHT22;11926;48.120;11.562;2023-04-30T16:42:25;17.40;58.60
23499;DHT22;11926;48.120;11.562;2023-04-30T16:45:12;17.30;58.70
23499;DHT22;11926;48.120;11.562;2023-04-30T16:47:59;17.30;58.60
23499;DHT22;11926;48.120;11.562;2023-04-30T16:50:47;17.20;58.40
23499;DHT22;11926;48.120;11.562;2023-04-30T16:53:34;17.20;58.70
23499;DHT22;11926;48.120;11.562;2023-04-30T16:56:22;17.20;58.30
23499;DHT22;11926;48.120;11.562;2023-04-30T16:59:09;17.00;58.10
23499;DHT22;11926;48.120;11.562;2023-04-30T17:01:56;16.90;58.40
23499;DHT22;11926;48.120;11.562;2023-04-30T17:04:45;16.90;58.50
23499;DHT22;11926;48.120;11.562;2023-04-30T17:07:32;16.80;58.30
23499;DHT22;11926;48.120;11.562;2023-04-30T17:10:19;16.80;58.50
23499;DHT22;11926;48.120;11.562;2023-04-30T17:13:08;16.80;59.00
23499;DHT22;11926;48.120;11.562;2023-04-30T17:15:55;16.70;58.90
23499;DHT22;11926;48.120;11.562;2023-04-30T17:18:47;16.70;59.20
23499;DHT22;11926;48.120;11.562;2023-04-30T17:21:34;16.70;59.20
23499;DHT22;11926;48.120;11.562;2023-04-30T17:24:22;16.60;59.00
23499;DHT22;11926;48.120;11.562;2023-04-30T17:27:10;16.50;59.10
23499;DHT22;11926;48.120;11.562;2023-04-30T17:29:58;16.40;59.30
23499;DHT22;11926;48.120;11.562;2023-04-30T17:32:46;16.40;60.40